sensor_id;sensor_type;location;lat;lon;timestamp;pressure;altitude;pressure_sealevel;temperature;humidity
50394;BME280;36308;46.312;25.288;2022-12-22T00:01:36;96251.91;;;-1.48;65.91
50394;BME280;36308;46.312;25.288;2022-12-22T00:04:20;96246.31;;;-1.45;65.94
50394;BME280;36308;46.312;25.288;2022-12-22T00:07:05;96252.22;;;-1.43;66.19
50394;BME280;36308;46.312;25.288;2022-12-22T00:09:49;96250.22;;;-1.41;66.11
50394;BME280;36308;46.312;25.288;2022-12-22T00:12:33;96251.69;;;-1.38;66.24
50394;BME280;36308;46.312;25.288;2022-12-22T00:15:17;96243.59;;;-1.37;65.95
50394;BME280;36308;46.312;25.288;2022-12-22T00:18:02;96240.78;;;-1.35;66.15
50394;BME280;36308;46.312;25.288;2022-12-22T00:20:46;96242.25;;;-1.33;65.91
50394;BME280;36308;46.312;25.288;2022-12-22T00:23:30;96242.06;;;-1.31;66.32
50394;BME280;36308;46.312;25.288;2022-12-22T00:29:17;96248.63;;;-1.27;66.36
50394;BME280;36308;46.312;25.288;2022-12-22T00:32:01;96245.81;;;-1.26;65.93
50394;BME280;36308;46.312;25.288;2022-12-22T00:34:45;96241.97;;;-1.23;65.94
50394;BME280;36308;46.312;25.288;2022-12-22T00:37:31;96237.53;;;-1.23;65.93
50394;BME280;36308;46.312;25.288;2022-12-22T00:40:16;96245.91;;;-1.19;65.99
50394;BME280;36308;46.312;25.288;2022-12-22T00:43:01;96249.19;;;-1.17;65.97
50394;BME280;36308;46.312;25.288;2022-12-22T00:45:45;96240.28;;;-1.16;66.36
50394;BME280;36308;46.312;25.288;2022-12-22T00:48:28;96237.44;;;-1.14;66.10
50394;BME280;36308;46.312;25.288;2022-12-22T00:51:12;96235.44;;;-1.12;66.48
50394;BME280;36308;46.312;25.288;2022-12-22T00:53:56;96228.19;;;-1.10;66.01
50394;BME280;36308;46.312;25.288;2022-12-22T00:56:40;96234.28;;;-1.10;66.07
50394;BME280;36308;46.312;25.288;2022-12-22T00:59:24;96230.66;;;-1.09;66.32
50394;BME280;36308;46.312;25.288;2022-12-22T01:02:09;96218.09;;;-1.07;66.51
50394;BME280;36308;46.312;25.288;2022-12-22T01:04:53;96220.56;;;-1.05;66.49
50394;BME280;36308;46.312;25.288;2022-12-22T01:07:37;96217.75;;;-1.04;66.24
50394;BME280;36308;46.312;25.288;2022-12-22T01:10:21;96220.19;;;-1.02;66.49
50394;BME280;36308;46.312;25.288;2022-12-22T01:13:09;96210.47;;;-1.02;66.34
50394;BME280;36308;46.312;25.288;2022-12-22T01:15:53;96211.28;;;-1.01;66.50
50394;BME280;36308;46.312;25.288;2022-12-22T01:18:36;96214.56;;;-0.99;66.55
50394;BME280;36308;46.312;25.288;2022-12-22T01:21:20;96205.63;;;-0.98;66.54
50394;BME280;36308;46.312;25.288;2022-12-22T01:24:07;96205.44;;;-0.96;66.46
50394;BME280;36308;46.312;25.288;2022-12-22T01:26:52;96214.19;;;-0.96;66.33
50394;BME280;36308;46.312;25.288;2022-12-22T01:29:36;96206.25;;;-0.96;66.34
50394;BME280;36308;46.312;25.288;2022-12-22T01:32:20;96205.28;;;-0.95;66.36
50394;BME280;36308;46.312;25.288;2022-12-22T01:35:04;96187.53;;;-1.01;65.95
50394;BME280;36308;46.312;25.288;2022-12-22T01:37:48;96194.56;;;-0.93;66.50
50394;BME280;36308;46.312;25.288;2022-12-22T01:40:32;96196.16;;;-0.92;66.38
50394;BME280;36308;46.312;25.288;2022-12-22T01:43:18;96196.00;;;-0.91;66.15
50394;BME280;36308;46.312;25.288;2022-12-22T01:49:09;96184.44;;;-0.90;65.81
50394;BME280;36308;46.312;25.288;2022-12-22T01:51:54;96187.06;;;-0.90;66.42
50394;BME280;36308;46.312;25.288;2022-12-22T01:54:38;96183.44;;;-0.89;66.09
50394;BME280;36308;46.312;25.288;2022-12-22T01:57:22;96185.06;;;-0.88;66.61
50394;BME280;36308;46.312;25.288;2022-12-22T02:00:06;96181.44;;;-0.87;66.41
50394;BME280;36308;46.312;25.288;2022-12-22T02:02:50;96170.03;;;-0.87;66.69
50394;BME280;36308;46.312;25.288;2022-12-22T02:05:34;96176.16;;;-0.87;66.68
50394;BME280;36308;46.312;25.288;2022-12-22T02:08:31;96176.78;;;-0.85;66.26
50394;BME280;36308;46.312;25.288;2022-12-22T02:11:24;96179.44;;;-0.85;66.58
50394;BME280;36308;46.312;25.288;2022-12-22T02:22:27;96164.41;;;-0.84;66.27
50394;BME280;36308;46.312;25.288;2022-12-22T02:25:14;96163.59;;;-0.85;66.22
50394;BME280;36308;46.312;25.288;2022-12-22T02:27:59;96162.56;;;-0.84;66.23
50394;BME280;36308;46.312;25.288;2022-12-22T02:30:44;96166.03;;;-0.83;65.93
50394;BME280;36308;46.312;25.288;2022-12-22T02:33:28;96163.38;;;-0.83;66.34
50394;BME280;36308;46.312;25.288;2022-12-22T02:39:11;96166.88;;;-0.83;66.03
50394;BME280;36308;46.312;25.288;2022-12-22T02:47:52;96165.84;;;-0.82;66.19
50394;BME280;36308;46.312;25.288;2022-12-22T02:50:51;96161.59;;;-0.83;66.34
50394;BME280;36308;46.312;25.288;2022-12-22T02:53:36;96161.59;;;-0.83;66.43
50394;BME280;36308;46.312;25.288;2022-12-22T02:56:21;96167.69;;;-0.82;66.31
50394;BME280;36308;46.312;25.288;2022-12-22T02:59:05;96168.50;;;-0.82;66.40
50394;BME280;36308;46.312;25.288;2022-12-22T03:01:49;96168.50;;;-0.82;66.62
50394;BME280;36308;46.312;25.288;2022-12-22T03:04:33;96155.47;;;-0.83;66.19
50394;BME280;36308;46.312;25.288;2022-12-22T03:07:17;96159.94;;;-0.84;66.04
50394;BME280;36308;46.312;25.288;2022-12-22T03:10:01;96157.31;;;-0.84;66.00
50394;BME280;36308;46.312;25.288;2022-12-22T03:12:45;96163.59;;;-0.85;66.43
50394;BME280;36308;46.312;25.288;2022-12-22T03:15:28;96166.41;;;-0.86;66.71
50394;BME280;36308;46.312;25.288;2022-12-22T03:18:12;96160.31;;;-0.87;66.90
50394;BME280;36308;46.312;25.288;2022-12-22T03:20:57;96155.03;;;-0.87;66.21
50394;BME280;36308;46.312;25.288;2022-12-22T03:23:41;96155.03;;;-0.87;66.69
50394;BME280;36308;46.312;25.288;2022-12-22T03:26:25;96150.75;;;-0.88;66.07
50394;BME280;36308;46.312;25.288;2022-12-22T03:28:50;96150.13;;;-0.90;66.38
50394;BME280;36308;46.312;25.288;2022-12-22T03:31:15;96155.38;;;-0.90;66.18
50394;BME280;36308;46.312;25.288;2022-12-22T03:33:41;96153.78;;;-0.91;66.25
50394;BME280;36308;46.312;25.288;2022-12-22T03:36:06;96152.97;;;-0.91;66.04
50394;BME280;36308;46.312;25.288;2022-12-22T03:38:32;96155.78;;;-0.93;66.77
50394;BME280;36308;46.312;25.288;2022-12-22T03:40:58;96154.13;;;-0.94;66.76
50394;BME280;36308;46.312;25.288;2022-12-22T03:43:23;96155.13;;;-0.95;66.83
50394;BME280;36308;46.312;25.288;2022-12-22T03:46:10;96155.13;;;-0.95;67.00
50394;BME280;36308;46.312;25.288;2022-12-22T03:51:57;96144.28;;;-1.00;66.97
50394;BME280;36308;46.312;25.288;2022-12-22T03:54:23;96140.03;;;-1.01;66.52
50394;BME280;36308;46.312;25.288;2022-12-22T03:59:33;96142.38;;;-1.06;66.70
50394;BME280;36308;46.312;25.288;2022-12-22T04:01:58;96131.19;;;-1.08;66.47
50394;BME280;36308;46.312;25.288;2022-12-22T04:04:24;96137.66;;;-1.11;65.96
50394;BME280;36308;46.312;25.288;2022-12-22T04:06:50;96138.84;;;-1.13;66.35
50394;BME280;36308;46.312;25.288;2022-12-22T04:09:15;96137.41;;;-1.16;66.63
50394;BME280;36308;46.312;25.288;2022-12-22T04:11:41;96135.91;;;-1.18;66.76
50394;BME280;36308;46.312;25.288;2022-12-22T04:14:24;96136.28;;;-1.22;66.44
50394;BME280;36308;46.312;25.288;2022-12-22T04:16:50;96135.81;;;-1.25;66.71
50394;BME280;36308;46.312;25.288;2022-12-22T04:19:15;96135.81;;;-1.25;66.60
50394;BME280;36308;46.312;25.288;2022-12-22T04:21:41;96132.72;;;-1.29;66.24
50394;BME280;36308;46.312;25.288;2022-12-22T04:24:07;96132.09;;;-1.31;66.72
50394;BME280;36308;46.312;25.288;2022-12-22T04:26:32;96135.72;;;-1.32;66.64
50394;BME280;36308;46.312;25.288;2022-12-22T04:28:57;96136.91;;;-1.34;66.28
50394;BME280;36308;46.312;25.288;2022-12-22T04:31:23;96132.84;;;-1.37;66.82
50394;BME280;36308;46.312;25.288;2022-12-22T04:33:48;96133.19;;;-1.40;66.65
50394;BME280;36308;46.312;25.288;2022-12-22T04:36:14;96141.47;;;-1.43;66.46
50394;BME280;36308;46.312;25.288;2022-12-22T04:38:39;96140.81;;;-1.45;67.13
50394;BME280;36308;46.312;25.288;2022-12-22T04:41:05;96127.00;;;-1.47;66.88
50394;BME280;36308;46.312;25.288;2022-12-22T04:43:30;96127.34;;;-1.50;66.68
50394;BME280;36308;46.312;25.288;2022-12-22T04:45:56;96131.00;;;-1.51;67.00
50394;BME280;36308;46.312;25.288;2022-12-22T04:48:21;96130.53;;;-1.55;66.88
50394;BME280;36308;46.312;25.288;2022-12-22T04:50:51;96131.72;;;-1.57;67.03
50394;BME280;36308;46.312;25.288;2022-12-22T04:53:16;96125.16;;;-1.61;66.68
50394;BME280;36308;46.312;25.288;2022-12-22T04:55:49;96127.97;;;-1.63;66.89
50394;BME280;36308;46.312;25.288;2022-12-22T04:58:15;96130.28;;;-1.68;66.97
50394;BME280;36308;46.312;25.288;2022-12-22T05:00:40;96135.13;;;-1.72;66.51
50394;BME280;36308;46.312;25.288;2022-12-22T05:03:06;96132.84;;;-1.75;66.43
50394;BME280;36308;46.312;25.288;2022-12-22T05:05:32;96141.91;;;-1.77;66.42
50394;BME280;36308;46.312;25.288;2022-12-22T05:07:58;96136.19;;;-1.81;66.65
50394;BME280;36308;46.312;25.288;2022-12-22T05:10:23;96134.91;;;-1.85;66.64
50394;BME280;36308;46.312;25.288;2022-12-22T05:12:48;96130.81;;;-1.88;66.91
50394;BME280;36308;46.312;25.288;2022-12-22T05:15:30;96142.69;;;-1.92;66.74
50394;BME280;36308;46.312;25.288;2022-12-22T05:17:56;96144.84;;;-1.95;66.83
50394;BME280;36308;46.312;25.288;2022-12-22T05:20:21;96145.22;;;-1.98;67.15
50394;BME280;36308;46.312;25.288;2022-12-22T05:22:47;96138.50;;;-2.01;66.65
50394;BME280;36308;46.312;25.288;2022-12-22T05:28:15;96144.47;;;-2.07;66.76
50394;BME280;36308;46.312;25.288;2022-12-22T05:30:40;96141.34;;;-2.11;66.73
50394;BME280;36308;46.312;25.288;2022-12-22T05:33:06;96151.41;;;-2.14;66.79
50394;BME280;36308;46.312;25.288;2022-12-22T05:35:31;96147.31;;;-2.17;67.11
50394;BME280;36308;46.312;25.288;2022-12-22T05:37:56;96148.50;;;-2.19;67.04
50394;BME280;36308;46.312;25.288;2022-12-22T05:40:22;96149.69;;;-2.22;67.06
50394;BME280;36308;46.312;25.288;2022-12-22T05:42:47;96148.38;;;-2.26;66.84
50394;BME280;36308;46.312;25.288;2022-12-22T05:45:16;96151.34;;;-2.29;67.15
50394;BME280;36308;46.312;25.288;2022-12-22T05:47:43;96153.34;;;-2.31;66.91
50394;BME280;36308;46.312;25.288;2022-12-22T05:50:09;96154.69;;;-2.35;66.72
50394;BME280;36308;46.312;25.288;2022-12-22T05:52:35;96163.59;;;-2.36;67.38
50394;BME280;36308;46.312;25.288;2022-12-22T05:55:00;96153.38;;;-2.39;66.79
50394;BME280;36308;46.312;25.288;2022-12-22T05:57:26;96165.91;;;-2.41;66.97
50394;BME280;36308;46.312;25.288;2022-12-22T05:59:51;96162.63;;;-2.44;67.26
50394;BME280;36308;46.312;25.288;2022-12-22T06:02:16;96163.78;;;-2.46;67.06
50394;BME280;36308;46.312;25.288;2022-12-22T06:04:42;96160.69;;;-2.50;67.36
50394;BME280;36308;46.312;25.288;2022-12-22T06:07:07;96165.94;;;-2.50;67.16
50394;BME280;36308;46.312;25.288;2022-12-22T06:09:32;96154.78;;;-2.52;67.24
50394;BME280;36308;46.312;25.288;2022-12-22T06:11:58;96172.56;;;-2.54;67.53
50394;BME280;36308;46.312;25.288;2022-12-22T06:14:23;96165.66;;;-2.55;67.30
50394;BME280;36308;46.312;25.288;2022-12-22T06:16:48;96169.28;;;-2.56;67.80
50394;BME280;36308;46.312;25.288;2022-12-22T06:19:14;96168.44;;;-2.56;67.13
50394;BME280;36308;46.312;25.288;2022-12-22T06:21:39;96165.00;;;-2.57;67.41
50394;BME280;36308;46.312;25.288;2022-12-22T06:24:05;96168.63;;;-2.58;67.32
50394;BME280;36308;46.312;25.288;2022-12-22T06:26:30;96167.00;;;-2.59;67.46
50394;BME280;36308;46.312;25.288;2022-12-22T06:28:56;96159.09;;;-2.59;67.70
50394;BME280;36308;46.312;25.288;2022-12-22T06:31:21;96159.91;;;-2.58;67.78
50394;BME280;36308;46.312;25.288;2022-12-22T06:33:47;96164.38;;;-2.59;67.52
50394;BME280;36308;46.312;25.288;2022-12-22T06:36:12;96167.00;;;-2.59;67.53
50394;BME280;36308;46.312;25.288;2022-12-22T06:38:38;96175.53;;;-2.57;68.02
50394;BME280;36308;46.312;25.288;2022-12-22T06:41:03;96165.00;;;-2.57;67.55
50394;BME280;36308;46.312;25.288;2022-12-22T06:43:28;96173.56;;;-2.55;67.98
50394;BME280;36308;46.312;25.288;2022-12-22T06:45:54;96163.69;;;-2.53;67.58
50394;BME280;36308;46.312;25.288;2022-12-22T06:48:19;96178.31;;;-2.50;67.67
50394;BME280;36308;46.312;25.288;2022-12-22T06:50:44;96168.25;;;-2.47;67.89
50394;BME280;36308;46.312;25.288;2022-12-22T06:53:10;96179.22;;;-2.43;67.89
50394;BME280;36308;46.312;25.288;2022-12-22T06:55:36;96169.19;;;-2.39;68.09
50394;BME280;36308;46.312;25.288;2022-12-22T06:58:01;96174.13;;;-2.36;68.54
50394;BME280;36308;46.312;25.288;2022-12-22T07:00:27;96181.50;;;-2.32;67.98
50394;BME280;36308;46.312;25.288;2022-12-22T07:02:52;96175.06;;;-2.29;68.23
50394;BME280;36308;46.312;25.288;2022-12-22T07:05:18;96183.28;;;-2.24;68.47
50394;BME280;36308;46.312;25.288;2022-12-22T07:07:43;96182.91;;;-2.21;68.10
50394;BME280;36308;46.312;25.288;2022-12-22T07:10:08;96179.75;;;-2.16;68.36
50394;BME280;36308;46.312;25.288;2022-12-22T07:12:34;96180.22;;;-2.13;68.22
50394;BME280;36308;46.312;25.288;2022-12-22T07:14:59;96175.25;;;-2.08;68.34
50394;BME280;36308;46.312;25.288;2022-12-22T07:17:24;96175.72;;;-2.04;68.12
50394;BME280;36308;46.312;25.288;2022-12-22T07:19:50;96176.84;;;-1.98;68.39
50394;BME280;36308;46.312;25.288;2022-12-22T07:22:15;96175.50;;;-1.94;68.57
50394;BME280;36308;46.312;25.288;2022-12-22T07:24:40;96175.78;;;-1.89;68.28
50394;BME280;36308;46.312;25.288;2022-12-22T07:27:06;96176.88;;;-1.84;68.08
50394;BME280;36308;46.312;25.288;2022-12-22T07:29:31;96176.34;;;-1.79;67.97
50394;BME280;36308;46.312;25.288;2022-12-22T07:31:57;96179.28;;;-1.74;68.27
50394;BME280;36308;46.312;25.288;2022-12-22T07:34:22;96181.22;;;-1.68;67.98
50394;BME280;36308;46.312;25.288;2022-12-22T07:36:47;96178.88;;;-1.63;68.35
50394;BME280;36308;46.312;25.288;2022-12-22T07:39:13;96179.16;;;-1.57;68.46
50394;BME280;36308;46.312;25.288;2022-12-22T07:41:38;96176.81;;;-1.52;68.28
50394;BME280;36308;46.312;25.288;2022-12-22T07:44:22;96177.75;;;-1.45;68.25
50394;BME280;36308;46.312;25.288;2022-12-22T07:46:48;96180.47;;;-1.38;68.39
50394;BME280;36308;46.312;25.288;2022-12-22T07:49:13;96180.56;;;-1.32;68.55
50394;BME280;36308;46.312;25.288;2022-12-22T07:51:57;96187.41;;;-1.23;68.71
50394;BME280;36308;46.312;25.288;2022-12-22T07:54:23;96184.50;;;-1.13;68.46
50394;BME280;36308;46.312;25.288;2022-12-22T07:56:49;96192.97;;;-1.03;68.59
50394;BME280;36308;46.312;25.288;2022-12-22T07:59:14;96190.91;;;-0.92;68.00
50394;BME280;36308;46.312;25.288;2022-12-22T08:01:40;96195.06;;;-0.83;67.92
50394;BME280;36308;46.312;25.288;2022-12-22T08:04:05;96190.16;;;-0.71;68.04
50394;BME280;36308;46.312;25.288;2022-12-22T08:06:31;96194.16;;;-0.61;68.14
50394;BME280;36308;46.312;25.288;2022-12-22T08:08:57;96193.53;;;-0.48;67.65
50394;BME280;36308;46.312;25.288;2022-12-22T08:11:23;96190.41;;;-0.36;67.35
50394;BME280;36308;46.312;25.288;2022-12-22T08:13:48;96189.91;;;-0.25;67.10
50394;BME280;36308;46.312;25.288;2022-12-22T08:16:14;96188.63;;;-0.14;67.18
50394;BME280;36308;46.312;25.288;2022-12-22T08:18:39;96184.03;;;-0.06;67.25
50394;BME280;36308;46.312;25.288;2022-12-22T08:21:05;96188.19;;;0.04;66.82
50394;BME280;36308;46.312;25.288;2022-12-22T08:23:31;96185.06;;;0.15;66.63
50394;BME280;36308;46.312;25.288;2022-12-22T08:26:02;96178.63;;;0.24;66.68
50394;BME280;36308;46.312;25.288;2022-12-22T08:28:30;96176.50;;;0.34;66.36
50394;BME280;36308;46.312;25.288;2022-12-22T08:30:57;96182.28;;;0.45;66.43
50394;BME280;36308;46.312;25.288;2022-12-22T08:33:23;96176.84;;;0.53;66.45
50394;BME280;36308;46.312;25.288;2022-12-22T08:35:48;96184.66;;;0.61;66.06
50394;BME280;36308;46.312;25.288;2022-12-22T08:38:14;96180.44;;;0.67;65.74
50394;BME280;36308;46.312;25.288;2022-12-22T08:40:40;96177.03;;;0.73;65.18
50394;BME280;36308;46.312;25.288;2022-12-22T08:43:07;96178.28;;;0.77;65.22
50394;BME280;36308;46.312;25.288;2022-12-22T08:45:33;96170.75;;;0.80;64.44
50394;BME280;36308;46.312;25.288;2022-12-22T08:47:58;96167.56;;;0.85;65.11
50394;BME280;36308;46.312;25.288;2022-12-22T08:50:23;96161.03;;;0.88;64.75
50394;BME280;36308;46.312;25.288;2022-12-22T08:52:49;96163.91;;;0.93;64.55
50394;BME280;36308;46.312;25.288;2022-12-22T08:58:17;96143.03;;;1.05;64.38
50394;BME280;36308;46.312;25.288;2022-12-22T09:00:42;96152.03;;;1.10;64.16
50394;BME280;36308;46.312;25.288;2022-12-22T09:03:08;96144.09;;;1.17;64.36
50394;BME280;36308;46.312;25.288;2022-12-22T09:05:33;96139.88;;;1.23;63.90
50394;BME280;36308;46.312;25.288;2022-12-22T09:08:02;96135.41;;;1.30;64.03
50394;BME280;36308;46.312;25.288;2022-12-22T09:10:27;96138.28;;;1.35;64.16
50394;BME280;36308;46.312;25.288;2022-12-22T09:12:53;96132.19;;;1.41;63.41
50394;BME280;36308;46.312;25.288;2022-12-22T09:15:18;96129.78;;;1.46;64.01
50394;BME280;36308;46.312;25.288;2022-12-22T09:17:43;96124.50;;;1.53;63.82
50394;BME280;36308;46.312;25.288;2022-12-22T09:20:09;96121.25;;;1.57;63.77
50394;BME280;36308;46.312;25.288;2022-12-22T09:22:34;96120.06;;;1.67;63.48
50394;BME280;36308;46.312;25.288;2022-12-22T09:24:59;96111.31;;;1.73;63.43
50394;BME280;36308;46.312;25.288;2022-12-22T09:27:25;96111.53;;;1.78;63.28
50394;BME280;36308;46.312;25.288;2022-12-22T09:29:50;96114.41;;;1.83;62.84
50394;BME280;36308;46.312;25.288;2022-12-22T09:32:15;96113.59;;;1.89;62.51
50394;BME280;36308;46.312;25.288;2022-12-22T09:34:41;96120.13;;;1.93;63.15
50394;BME280;36308;46.312;25.288;2022-12-22T09:37:06;96108.72;;;1.99;62.27
50394;BME280;36308;46.312;25.288;2022-12-22T09:39:32;96102.63;;;2.06;62.54
50394;BME280;36308;46.312;25.288;2022-12-22T09:41:57;96107.50;;;2.09;63.00
50394;BME280;36308;46.312;25.288;2022-12-22T09:44:24;96108.53;;;2.14;62.32
50394;BME280;36308;46.312;25.288;2022-12-22T09:46:51;96098.13;;;2.19;61.87
50394;BME280;36308;46.312;25.288;2022-12-22T09:49:17;96091.19;;;2.25;61.87
50394;BME280;36308;46.312;25.288;2022-12-22T09:51:45;96086.91;;;2.31;61.59
50394;BME280;36308;46.312;25.288;2022-12-22T09:54:11;96088.75;;;2.37;62.18
50394;BME280;36308;46.312;25.288;2022-12-22T09:56:38;96085.47;;;2.41;61.49
50394;BME280;36308;46.312;25.288;2022-12-22T09:59:13;96084.66;;;2.48;61.91
50394;BME280;36308;46.312;25.288;2022-12-22T10:06:50;96100.16;;;2.64;60.47
50394;BME280;36308;46.312;25.288;2022-12-22T10:09:22;96094.03;;;2.70;61.06
50394;BME280;36308;46.312;25.288;2022-12-22T10:11:49;96091.38;;;2.77;60.90
50394;BME280;36308;46.312;25.288;2022-12-22T10:14:15;96089.31;;;2.86;60.95
50394;BME280;36308;46.312;25.288;2022-12-22T10:16:40;96088.28;;;2.93;60.34
50394;BME280;36308;46.312;25.288;2022-12-22T10:19:07;96081.31;;;2.99;60.30
50394;BME280;36308;46.312;25.288;2022-12-22T10:21:33;96087.63;;;3.04;60.03
50394;BME280;36308;46.312;25.288;2022-12-22T10:23:58;96081.69;;;3.09;59.39
50394;BME280;36308;46.312;25.288;2022-12-22T10:26:25;96079.22;;;3.14;59.60
50394;BME280;36308;46.312;25.288;2022-12-22T10:29:10;96071.66;;;3.18;59.59
50394;BME280;36308;46.312;25.288;2022-12-22T10:31:54;96076.34;;;3.22;58.51
50394;BME280;36308;46.312;25.288;2022-12-22T10:34:21;96065.28;;;3.26;57.96
50394;BME280;36308;46.312;25.288;2022-12-22T10:36:47;96060.34;;;3.29;57.81
50394;BME280;36308;46.312;25.288;2022-12-22T10:39:18;96055.44;;;3.33;57.44
50394;BME280;36308;46.312;25.288;2022-12-22T10:41:45;96058.72;;;3.35;57.33
50394;BME280;36308;46.312;25.288;2022-12-22T10:46:41;96052.56;;;3.41;56.93
50394;BME280;36308;46.312;25.288;2022-12-22T10:49:16;96034.56;;;3.43;57.00
50394;BME280;36308;46.312;25.288;2022-12-22T10:51:43;96031.69;;;3.44;57.52
50394;BME280;36308;46.312;25.288;2022-12-22T10:54:09;96032.50;;;3.45;57.16
50394;BME280;36308;46.312;25.288;2022-12-22T10:56:49;96028.59;;;3.48;57.48
50394;BME280;36308;46.312;25.288;2022-12-22T10:59:22;96024.69;;;3.50;57.39
50394;BME280;36308;46.312;25.288;2022-12-22T11:01:48;96026.94;;;3.53;57.31
50394;BME280;36308;46.312;25.288;2022-12-22T11:04:15;96020.56;;;3.54;57.51
50394;BME280;36308;46.312;25.288;2022-12-22T11:06:41;96016.91;;;3.55;57.80
50394;BME280;36308;46.312;25.288;2022-12-22T11:09:08;96020.97;;;3.58;57.47
50394;BME280;36308;46.312;25.288;2022-12-22T11:11:35;96007.47;;;3.59;57.67
50394;BME280;36308;46.312;25.288;2022-12-22T11:16:49;96000.69;;;3.63;57.47
50394;BME280;36308;46.312;25.288;2022-12-22T11:19:19;96004.75;;;3.66;57.48
50394;BME280;36308;46.312;25.288;2022-12-22T11:26:59;95993.66;;;3.76;57.27
50394;BME280;36308;46.312;25.288;2022-12-22T11:34:42;95986.44;;;3.83;57.68
50394;BME280;36308;46.312;25.288;2022-12-22T11:45:35;95983.91;;;3.95;57.39
50394;BME280;36308;46.312;25.288;2022-12-22T11:50:52;95975.84;;;4.01;57.87
50394;BME280;36308;46.312;25.288;2022-12-22T12:14:09;95931.44;;;4.64;57.42
50394;BME280;36308;46.312;25.288;2022-12-22T12:16:44;95944.81;;;4.76;57.05
50394;BME280;36308;46.312;25.288;2022-12-22T12:21:56;95947.69;;;4.93;57.17
50394;BME280;36308;46.312;25.288;2022-12-22T12:24:39;95948.41;;;5.00;56.67
50394;BME280;36308;46.312;25.288;2022-12-22T12:29:46;95945.38;;;5.15;56.69
50394;BME280;36308;46.312;25.288;2022-12-22T12:32:16;95941.56;;;5.22;56.48
50394;BME280;36308;46.312;25.288;2022-12-22T12:34:43;95938.78;;;5.29;56.13
50394;BME280;36308;46.312;25.288;2022-12-22T12:39:58;95938.03;;;5.40;55.84
50394;BME280;36308;46.312;25.288;2022-12-22T12:42:33;95947.22;;;5.44;55.44
50394;BME280;36308;46.312;25.288;2022-12-22T12:45:01;95946.53;;;5.49;55.15
50394;BME280;36308;46.312;25.288;2022-12-22T12:47:33;95954.66;;;5.54;55.25
50394;BME280;36308;46.312;25.288;2022-12-22T12:57:49;95963.63;;;5.72;54.86
50394;BME280;36308;46.312;25.288;2022-12-22T13:00:57;95958.28;;;5.72;54.66
50394;BME280;36308;46.312;25.288;2022-12-22T13:05:32;95964.44;;;5.72;54.27
50394;BME280;36308;46.312;25.288;2022-12-22T13:08:13;95960.97;;;5.72;54.03
50394;BME280;36308;46.312;25.288;2022-12-22T13:21:00;95942.25;;;5.60;54.11
50394;BME280;36308;46.312;25.288;2022-12-22T13:23:29;95940.88;;;5.57;53.93
50394;BME280;36308;46.312;25.288;2022-12-22T13:26:01;95931.69;;;5.53;53.73
50394;BME280;36308;46.312;25.288;2022-12-22T13:28:30;95933.78;;;5.51;53.86
50394;BME280;36308;46.312;25.288;2022-12-22T13:30:57;95934.25;;;5.48;54.05
50394;BME280;36308;46.312;25.288;2022-12-22T13:33:24;95931.00;;;5.46;54.27
50394;BME280;36308;46.312;25.288;2022-12-22T13:35:51;95927.97;;;5.42;53.93
50394;BME280;36308;46.312;25.288;2022-12-22T13:38:26;95923.06;;;5.39;54.57
50394;BME280;36308;46.312;25.288;2022-12-22T13:40:53;95916.34;;;5.37;54.55
50394;BME280;36308;46.312;25.288;2022-12-22T13:43:18;95926.41;;;5.35;54.54
50394;BME280;36308;46.312;25.288;2022-12-22T13:45:45;95931.38;;;5.31;54.78
50394;BME280;36308;46.312;25.288;2022-12-22T13:48:15;95938.00;;;5.29;54.88
50394;BME280;36308;46.312;25.288;2022-12-22T13:50:44;95941.13;;;5.25;55.25
50394;BME280;36308;46.312;25.288;2022-12-22T13:53:14;95931.72;;;5.23;54.90
50394;BME280;36308;46.312;25.288;2022-12-22T13:55:40;95935.63;;;5.20;55.00
50394;BME280;36308;46.312;25.288;2022-12-22T13:58:43;95926.25;;;5.18;55.45
50394;BME280;36308;46.312;25.288;2022-12-22T14:03:34;95919.97;;;5.12;55.68
50394;BME280;36308;46.312;25.288;2022-12-22T14:05:59;95920.44;;;5.09;55.72
50394;BME280;36308;46.312;25.288;2022-12-22T14:08:25;95921.44;;;5.08;55.75
50394;BME280;36308;46.312;25.288;2022-12-22T14:10:50;95918.19;;;5.06;55.92
50394;BME280;36308;46.312;25.288;2022-12-22T14:13:17;95916.59;;;5.05;55.63
50394;BME280;36308;46.312;25.288;2022-12-22T14:15:44;95916.59;;;5.05;56.18
50394;BME280;36308;46.312;25.288;2022-12-22T14:18:14;95921.31;;;5.03;55.94
50394;BME280;36308;46.312;25.288;2022-12-22T14:20:41;95922.34;;;5.02;56.52
50394;BME280;36308;46.312;25.288;2022-12-22T14:23:12;95928.72;;;5.01;56.41
50394;BME280;36308;46.312;25.288;2022-12-22T14:25:42;95923.63;;;4.99;56.17
50394;BME280;36308;46.312;25.288;2022-12-22T14:30:44;95919.56;;;4.97;55.81
50394;BME280;36308;46.312;25.288;2022-12-22T14:33:53;95925.91;;;4.96;56.41
50394;BME280;36308;46.312;25.288;2022-12-22T14:36:15;95924.31;;;4.95;56.28
50394;BME280;36308;46.312;25.288;2022-12-22T14:38:45;95916.53;;;4.93;56.37
50394;BME280;36308;46.312;25.288;2022-12-22T14:44:02;95912.91;;;4.88;56.94
50394;BME280;36308;46.312;25.288;2022-12-22T14:46:27;95915.56;;;4.88;56.65
50394;BME280;36308;46.312;25.288;2022-12-22T14:48:53;95921.94;;;4.86;57.01
50394;BME280;36308;46.312;25.288;2022-12-22T14:51:18;95923.81;;;4.86;56.63
50394;BME280;36308;46.312;25.288;2022-12-22T14:53:45;95923.22;;;4.84;56.95
50394;BME280;36308;46.312;25.288;2022-12-22T14:56:13;95926.09;;;4.82;57.11
50394;BME280;36308;46.312;25.288;2022-12-22T14:58:39;95924.44;;;4.81;57.10
50394;BME280;36308;46.312;25.288;2022-12-22T15:01:17;95928.16;;;4.80;57.26
50394;BME280;36308;46.312;25.288;2022-12-22T15:03:43;95917.97;;;4.77;57.27
50394;BME280;36308;46.312;25.288;2022-12-22T15:06:30;95926.97;;;4.76;57.00
50394;BME280;36308;46.312;25.288;2022-12-22T15:11:36;95927.44;;;4.73;57.42
50394;BME280;36308;46.312;25.288;2022-12-22T15:14:02;95920.47;;;4.72;57.78
50394;BME280;36308;46.312;25.288;2022-12-22T15:16:28;95923.13;;;4.72;57.81
50394;BME280;36308;46.312;25.288;2022-12-22T15:18:54;95915.16;;;4.72;57.77
50394;BME280;36308;46.312;25.288;2022-12-22T15:21:19;95912.69;;;4.71;57.74
50394;BME280;36308;46.312;25.288;2022-12-22T15:23:45;95926.25;;;4.69;57.53